createdAt,value
2017-04-08T00:00:14.444Z,39.22
2017-04-08T00:01:15.223Z,39.12
2017-04-08T00:02:15.800Z,39.31
2017-04-08T00:03:16.373Z,39.03
2017-04-08T00:04:16.947Z,39.03
2017-04-08T00:05:17.523Z,39.22
2017-04-08T00:06:18.100Z,39.12
2017-04-08T00:07:18.675Z,39.31
2017-04-08T00:08:19.251Z,39.12
2017-04-08T00:09:19.825Z,39.03
2017-04-08T00:10:20.403Z,39.31
2017-04-08T00:11:20.979Z,39.31
2017-04-08T00:12:21.571Z,39.50
2017-04-08T00:13:22.147Z,39.50
2017-04-08T00:14:22.723Z,39.50
2017-04-08T00:15:23.301Z,39.31
2017-04-08T00:16:24.077Z,39.60
2017-04-08T00:17:24.655Z,39.31
2017-04-08T00:18:25.230Z,39.31
2017-04-08T00:19:25.804Z,39.41
2017-04-08T00:20:26.381Z,39.41
2017-04-08T00:21:26.956Z,39.58
2017-04-08T00:22:27.531Z,39.48
2017-04-08T00:23:28.107Z,39.77
2017-04-08T00:24:28.684Z,39.58
2017-04-08T00:25:29.259Z,39.68
2017-04-08T00:26:29.836Z,39.68
2017-04-08T00:27:30.412Z,39.70
2017-04-08T00:28:30.988Z,39.77
2017-04-08T00:29:31.564Z,39.70
2017-04-08T00:30:32.144Z,39.68
2017-04-08T00:31:32.934Z,39.58
2017-04-08T00:32:33.510Z,39.58
2017-04-08T00:33:34.085Z,39.89
2017-04-08T00:34:34.662Z,39.89
2017-04-08T00:35:35.237Z,39.70
2017-04-08T00:36:35.813Z,39.77
2017-04-08T00:37:36.390Z,39.68
2017-04-08T00:38:36.965Z,39.77
2017-04-08T00:39:37.558Z,39.68
2017-04-08T00:40:38.134Z,39.58
2017-04-08T00:41:38.706Z,39.77
2017-04-08T00:42:39.288Z,39.48
2017-04-08T00:43:39.876Z,39.87
2017-04-08T00:44:40.452Z,40.06
2017-04-08T00:45:41.027Z,40.06
2017-04-08T00:46:41.804Z,39.97
2017-04-08T00:47:42.378Z,40.06
2017-04-08T00:48:42.975Z,40.06
2017-04-08T00:49:43.528Z,40.16
2017-04-08T00:50:44.122Z,40.25
2017-04-08T00:51:44.697Z,40.25
2017-04-08T00:52:45.271Z,40.25
2017-04-08T00:53:45.846Z,40.25
2017-04-08T00:54:46.439Z,40.25
2017-04-08T00:55:47.014Z,40.35
2017-04-08T00:56:47.591Z,40.25
2017-04-08T00:57:48.167Z,40.35
2017-04-08T00:58:48.761Z,40.25
2017-04-08T00:59:49.336Z,40.16
2017-04-08T01:00:49.916Z,40.25
2017-04-08T01:01:50.704Z,40.06
2017-04-08T01:02:51.285Z,40.16
2017-04-08T01:03:51.857Z,40.06
2017-04-08T01:04:52.430Z,40.06
2017-04-08T01:05:53.005Z,40.06
2017-04-08T01:06:53.584Z,40.06
2017-04-08T01:07:54.156Z,39.97
2017-04-08T01:08:54.731Z,39.87
2017-04-08T01:09:55.307Z,39.68
2017-04-08T01:10:55.885Z,39.77
2017-04-08T01:11:56.458Z,39.87
2017-04-08T01:12:57.033Z,39.58
2017-04-08T01:13:57.608Z,39.58
2017-04-08T01:14:58.185Z,39.97
2017-04-08T01:15:58.760Z,40.06
2017-04-08T01:16:59.534Z,40.25
2017-04-08T01:18:00.110Z,40.25
2017-04-08T01:19:00.684Z,40.16
2017-04-08T01:20:01.261Z,40.35
2017-04-08T01:21:01.836Z,40.06
2017-04-08T01:22:02.411Z,40.06
2017-04-08T01:23:02.985Z,40.16
2017-04-08T01:24:03.560Z,40.16
2017-04-08T01:25:04.137Z,40.33
2017-04-08T01:26:04.713Z,40.44
2017-04-08T01:27:05.287Z,40.35
2017-04-08T01:28:05.863Z,40.25
2017-04-08T01:29:06.438Z,40.44
2017-04-08T01:30:07.014Z,40.25
2017-04-08T01:31:07.588Z,40.35
2017-04-08T01:32:08.368Z,40.23
2017-04-08T01:33:08.940Z,40.16
2017-04-08T01:34:09.513Z,40.33
2017-04-08T01:35:10.090Z,40.33
2017-04-08T01:36:10.665Z,40.25
2017-04-08T01:37:11.240Z,40.23
2017-04-08T01:38:11.816Z,40.33
2017-04-08T01:39:12.411Z,40.16
2017-04-08T01:40:12.984Z,40.35
2017-04-08T01:41:13.560Z,40.16
2017-04-08T01:42:14.136Z,40.06
2017-04-08T01:43:14.710Z,40.25
2017-04-08T01:44:15.286Z,40.16
2017-04-08T01:45:15.877Z,40.06
2017-04-08T01:46:16.452Z,40.16
2017-04-08T01:47:17.227Z,40.06
2017-04-08T01:48:17.802Z,39.87
2017-04-08T01:49:18.379Z,40.06
2017-04-08T01:50:18.952Z,40.06
2017-04-08T01:51:19.525Z,39.87
2017-04-08T01:52:20.101Z,39.87
2017-04-08T01:53:20.694Z,40.06
2017-04-08T01:54:21.267Z,40.06
2017-04-08T01:55:21.859Z,40.16
2017-04-08T01:56:22.438Z,40.06
2017-04-08T01:57:23.012Z,40.06
2017-04-08T01:58:23.586Z,40.06
2017-04-08T01:59:24.162Z,40.16
2017-04-08T02:00:24.738Z,40.25
2017-04-08T02:01:25.312Z,40.25
2017-04-08T02:02:26.087Z,40.35
2017-04-08T02:03:26.662Z,40.35
2017-04-08T02:04:27.238Z,40.33
2017-04-08T02:05:27.812Z,40.14
2017-04-08T02:06:28.392Z,40.14
2017-04-08T02:07:28.966Z,40.33
2017-04-08T02:08:29.558Z,40.23
2017-04-08T02:09:30.133Z,40.14
2017-04-08T02:10:30.708Z,40.23
2017-04-08T02:11:31.284Z,40.23
2017-04-08T02:12:31.858Z,40.33
2017-04-08T02:13:32.433Z,40.23
2017-04-08T02:14:33.010Z,40.33
2017-04-08T02:15:33.584Z,40.14
2017-04-08T02:16:34.159Z,40.23
2017-04-08T02:17:34.936Z,40.33
2017-04-08T02:18:35.510Z,40.33
2017-04-08T02:19:36.089Z,40.16
2017-04-08T02:20:36.661Z,40.14
2017-04-08T02:21:37.255Z,40.16
2017-04-08T02:22:37.830Z,40.04
2017-04-08T02:23:38.405Z,39.85
2017-04-08T02:24:38.981Z,39.85
2017-04-08T02:25:39.557Z,40.04
2017-04-08T02:26:40.132Z,40.04
2017-04-08T02:27:40.707Z,40.04
2017-04-08T02:28:41.284Z,40.14
2017-04-08T02:29:41.858Z,40.33
2017-04-08T02:30:42.432Z,40.14
2017-04-08T02:31:43.009Z,40.14
2017-04-08T02:32:43.784Z,40.23
2017-04-08T02:33:44.359Z,40.33
2017-04-08T02:34:44.938Z,40.33
2017-04-08T02:35:45.510Z,40.33
2017-04-08T02:36:46.085Z,40.14
2017-04-08T02:37:46.658Z,40.14
2017-04-08T02:38:47.235Z,40.14
2017-04-08T02:39:47.808Z,40.14
2017-04-08T02:40:48.401Z,40.14
2017-04-08T02:41:48.988Z,40.04
2017-04-08T02:42:49.566Z,39.94
2017-04-08T02:43:50.141Z,40.52
2017-04-08T02:44:50.717Z,40.61
2017-04-08T02:45:51.293Z,40.14
2017-04-08T02:46:51.871Z,40.04
2017-04-08T02:47:52.641Z,40.42
2017-04-08T02:48:53.215Z,40.52
2017-04-08T02:49:53.791Z,40.14
2017-04-08T02:50:54.367Z,40.14
2017-04-08T02:51:54.942Z,40.42
2017-04-08T02:52:55.515Z,40.23
2017-04-08T02:53:56.091Z,40.23
2017-04-08T02:54:56.664Z,40.14
2017-04-08T02:55:57.241Z,40.33
2017-04-08T02:56:57.815Z,40.42
2017-04-08T02:57:58.391Z,40.14
2017-04-08T02:58:58.967Z,40.52
2017-04-08T02:59:59.541Z,40.42
2017-04-08T03:01:00.116Z,40.33
2017-04-08T03:02:00.690Z,40.42
2017-04-08T03:03:01.484Z,40.14
2017-04-08T03:04:02.057Z,40.33
2017-04-08T03:05:02.648Z,40.14
2017-04-08T03:06:03.228Z,40.42
2017-04-08T03:07:03.799Z,40.52
2017-04-08T03:08:04.374Z,40.14
2017-04-08T03:09:04.948Z,40.33
2017-04-08T03:10:05.524Z,40.52
2017-04-08T03:11:06.099Z,40.14
2017-04-08T03:12:06.674Z,40.04
2017-04-08T03:13:07.247Z,40.23
2017-04-08T03:14:07.840Z,40.23
2017-04-08T03:15:08.416Z,40.52
2017-04-08T03:16:08.989Z,40.23
2017-04-08T03:17:09.565Z,40.33
2017-04-08T03:18:10.339Z,40.52
2017-04-08T03:19:10.915Z,40.33
2017-04-08T03:20:11.489Z,40.14
2017-04-08T03:21:12.064Z,40.33
2017-04-08T03:22:12.658Z,40.23
2017-04-08T03:23:13.233Z,40.04
2017-04-08T03:24:13.808Z,40.14
2017-04-08T03:25:14.382Z,40.14
2017-04-08T03:26:14.961Z,40.14
2017-04-08T03:27:15.533Z,40.14
2017-04-08T03:28:16.106Z,40.04
2017-04-08T03:29:16.698Z,40.52
2017-04-08T03:30:17.274Z,40.61
2017-04-08T03:31:17.848Z,40.61
2017-04-08T03:32:18.440Z,40.52
2017-04-08T03:33:19.216Z,40.61
2017-04-08T03:34:19.790Z,40.61
2017-04-08T03:35:20.366Z,40.23
2017-04-08T03:36:20.940Z,40.14
2017-04-08T03:37:21.516Z,40.23
2017-04-08T03:38:22.092Z,40.14
2017-04-08T03:39:22.685Z,40.04
2017-04-08T03:40:23.259Z,40.14
2017-04-08T03:41:23.836Z,40.04
2017-04-08T03:42:24.411Z,40.14
2017-04-08T03:43:24.985Z,40.52
2017-04-08T03:44:25.560Z,40.14
2017-04-08T03:45:26.136Z,40.04
2017-04-08T03:46:26.730Z,40.14
2017-04-08T03:47:27.304Z,40.04
2017-04-08T03:48:27.879Z,40.12
2017-04-08T03:49:28.457Z,39.94
2017-04-08T03:50:29.028Z,40.33
2017-04-08T03:51:29.603Z,40.04
2017-04-08T03:52:30.177Z,40.14
2017-04-08T03:53:30.758Z,40.33
2017-04-08T03:54:31.347Z,40.33
2017-04-08T03:55:31.922Z,40.33
2017-04-08T03:56:32.497Z,40.23
2017-04-08T03:57:33.073Z,40.23
2017-04-08T03:58:33.649Z,40.04
2017-04-08T03:59:34.224Z,39.94
2017-04-08T04:00:34.801Z,40.04
2017-04-08T04:01:35.377Z,40.04
2017-04-08T04:02:35.949Z,40.14
2017-04-08T04:03:36.524Z,39.85
2017-04-08T04:04:37.102Z,39.94
2017-04-08T04:05:37.693Z,39.85
2017-04-08T04:06:38.267Z,39.75
2017-04-08T04:07:38.844Z,39.47
2017-04-08T04:08:39.418Z,39.85
2017-04-08T04:09:39.992Z,39.56
2017-04-08T04:10:40.569Z,39.65
2017-04-08T04:11:41.146Z,39.65
2017-04-08T04:12:41.719Z,39.47
2017-04-08T04:13:42.295Z,39.47
2017-04-08T04:14:42.870Z,39.85
2017-04-08T04:15:43.444Z,39.85
2017-04-08T04:16:44.023Z,39.85
2017-04-08T04:17:44.598Z,39.56
2017-04-08T04:18:45.171Z,39.85
2017-04-08T04:19:45.746Z,39.75
2017-04-08T04:20:46.321Z,39.75
2017-04-08T04:21:46.898Z,39.65
2017-04-08T04:22:47.473Z,39.75
2017-04-08T04:23:48.065Z,39.85
2017-04-08T04:24:48.642Z,39.65
2017-04-08T04:25:49.216Z,40.04
2017-04-08T04:26:49.792Z,40.14
2017-04-08T04:27:50.368Z,40.04
2017-04-08T04:28:51.144Z,40.04
2017-04-08T04:29:51.718Z,40.04
2017-04-08T04:30:52.295Z,40.23
2017-04-08T04:31:52.869Z,40.04
2017-04-08T04:32:53.444Z,40.14
2017-04-08T04:33:54.021Z,40.23
2017-04-08T04:34:54.595Z,40.23
2017-04-08T04:35:55.171Z,40.14
2017-04-08T04:36:55.750Z,40.14
2017-04-08T04:37:56.324Z,40.14
2017-04-08T04:38:56.901Z,40.04
2017-04-08T04:39:57.477Z,39.85
2017-04-08T04:40:58.053Z,39.75
2017-04-08T04:41:58.646Z,39.94
2017-04-08T04:42:59.222Z,39.56
2017-04-08T04:44:00.000Z,39.47
2017-04-08T04:45:00.593Z,39.47
2017-04-08T04:46:01.169Z,39.75
2017-04-08T04:47:01.746Z,39.65
2017-04-08T04:48:02.331Z,39.94
2017-04-08T04:49:02.897Z,39.65
2017-04-08T04:50:03.474Z,39.65
2017-04-08T04:51:04.050Z,39.85
2017-04-08T04:52:04.627Z,39.85
2017-04-08T04:53:05.203Z,39.94
2017-04-08T04:54:05.979Z,39.94
2017-04-08T04:55:06.556Z,39.75
2017-04-08T04:56:07.132Z,39.85
2017-04-08T04:57:07.708Z,39.85
2017-04-08T04:58:08.286Z,39.65
2017-04-08T04:59:08.863Z,39.65
2017-04-08T05:00:09.439Z,39.75
2017-04-08T05:01:10.036Z,39.94
2017-04-08T05:02:10.613Z,40.23
2017-04-08T05:03:11.189Z,40.04
2017-04-08T05:04:11.767Z,40.14
2017-04-08T05:05:12.345Z,40.12
2017-04-08T05:06:12.924Z,40.04
2017-04-08T05:07:13.500Z,40.04
2017-04-08T05:08:14.075Z,40.14
2017-04-08T05:09:14.859Z,39.65
2017-04-08T05:10:15.431Z,39.47
2017-04-08T05:11:16.013Z,39.65
2017-04-08T05:12:16.587Z,39.75
2017-04-08T05:13:17.167Z,39.94
2017-04-08T05:14:17.745Z,39.56
2017-04-08T05:15:18.325Z,39.65
2017-04-08T05:16:18.903Z,39.65
2017-04-08T05:17:19.480Z,39.56
2017-04-08T05:18:20.059Z,39.56
2017-04-08T05:19:20.637Z,39.65
2017-04-08T05:20:21.215Z,39.65
2017-04-08T05:21:21.794Z,39.65
2017-04-08T05:22:22.374Z,39.75
2017-04-08T05:23:22.952Z,39.75
2017-04-08T05:24:23.730Z,39.75
2017-04-08T05:25:24.305Z,39.75
2017-04-08T05:26:24.884Z,39.75
2017-04-08T05:27:25.463Z,39.65
2017-04-08T05:28:26.039Z,39.56
2017-04-08T05:29:26.618Z,39.65
2017-04-08T05:30:27.195Z,39.65
2017-04-08T05:31:27.775Z,39.75
2017-04-08T05:32:28.358Z,39.65
2017-04-08T05:33:28.950Z,39.56
2017-04-08T05:34:29.528Z,39.75
2017-04-08T05:35:30.105Z,39.65
2017-04-08T05:36:30.685Z,39.37
2017-04-08T05:37:31.265Z,39.37
2017-04-08T05:38:31.842Z,39.28
2017-04-08T05:39:32.621Z,39.28
2017-04-08T05:40:33.199Z,39.28
2017-04-08T05:41:33.778Z,39.56
2017-04-08T05:42:34.358Z,39.48
2017-04-08T05:43:34.937Z,39.48
2017-04-08T05:44:35.532Z,39.01
2017-04-08T05:45:36.113Z,39.20
2017-04-08T05:46:36.692Z,39.10
2017-04-08T05:47:37.272Z,39.20
2017-04-08T05:48:37.851Z,39.10
2017-04-08T05:49:38.430Z,39.01
2017-04-08T05:50:39.009Z,39.01
2017-04-08T05:51:39.608Z,39.29
2017-04-08T05:52:40.185Z,39.18
2017-04-08T05:53:40.763Z,39.37
2017-04-08T05:54:41.344Z,39.18
2017-04-08T05:55:41.940Z,39.29
2017-04-08T05:56:42.520Z,39.29
2017-04-08T05:57:43.100Z,39.29
2017-04-08T05:58:43.681Z,39.48
2017-04-08T05:59:44.258Z,39.20
2017-04-08T06:00:44.837Z,39.29
2017-04-08T06:01:45.418Z,39.10
2017-04-08T06:02:45.996Z,38.72
2017-04-08T06:03:46.575Z,38.72
2017-04-08T06:04:47.354Z,38.81
2017-04-08T06:05:47.936Z,38.62
2017-04-08T06:06:48.511Z,38.53
2017-04-08T06:07:49.091Z,38.54
2017-04-08T06:08:49.668Z,38.45
2017-04-08T06:09:50.276Z,38.62
2017-04-08T06:10:50.826Z,38.54
2017-04-08T06:11:51.412Z,38.64
2017-04-08T06:12:51.987Z,38.26
2017-04-08T06:13:52.564Z,38.16
2017-04-08T06:14:53.145Z,38.26
2017-04-08T06:15:53.729Z,38.26
2017-04-08T06:16:54.313Z,38.35
2017-04-08T06:17:54.884Z,38.07
2017-04-08T06:18:55.467Z,38.07
2017-04-08T06:19:56.045Z,38.07
2017-04-08T06:20:56.624Z,38.26
2017-04-08T06:21:57.204Z,38.26
2017-04-08T06:22:57.784Z,37.99
2017-04-08T06:23:58.381Z,37.99
2017-04-08T06:24:58.962Z,37.80
2017-04-08T06:25:59.540Z,37.80
2017-04-08T06:27:00.121Z,38.09
2017-04-08T06:28:00.700Z,37.80
2017-04-08T06:29:01.281Z,37.70
2017-04-08T06:30:02.061Z,37.80
2017-04-08T06:31:02.643Z,37.80
2017-04-08T06:32:03.239Z,37.70
2017-04-08T06:33:03.820Z,37.80
2017-04-08T06:34:04.401Z,37.99
2017-04-08T06:35:04.981Z,37.99
2017-04-08T06:36:05.561Z,37.99
2017-04-08T06:37:06.145Z,38.09
2017-04-08T06:38:06.726Z,37.99
2017-04-08T06:39:07.306Z,37.89
2017-04-08T06:40:07.886Z,37.89
2017-04-08T06:41:08.467Z,37.89
2017-04-08T06:42:09.064Z,37.89
2017-04-08T06:43:09.644Z,37.99
2017-04-08T06:44:10.227Z,37.99
2017-04-08T06:45:11.004Z,37.99
2017-04-08T06:46:11.586Z,38.09
2017-04-08T06:47:12.184Z,37.99
2017-04-08T06:48:12.766Z,37.99
2017-04-08T06:49:13.346Z,37.99
2017-04-08T06:50:13.927Z,37.99
2017-04-08T06:51:14.512Z,37.70
2017-04-08T06:52:15.091Z,37.70
2017-04-08T06:53:15.670Z,37.80
2017-04-08T06:54:16.251Z,37.70
2017-04-08T06:55:16.830Z,37.62
2017-04-08T06:56:17.412Z,37.34
2017-04-08T06:57:17.993Z,37.24
2017-04-08T06:58:18.591Z,37.34
2017-04-08T06:59:19.172Z,37.43
2017-04-08T07:00:19.952Z,37.24
2017-04-08T07:01:20.535Z,37.24
2017-04-08T07:02:21.115Z,37.15
2017-04-08T07:03:21.697Z,36.76
2017-04-08T07:04:22.279Z,36.66
2017-04-08T07:05:22.860Z,36.78
2017-04-08T07:06:23.459Z,36.78
2017-04-08T07:07:24.042Z,36.68
2017-04-08T07:08:24.620Z,36.58
2017-04-08T07:09:25.202Z,37.07
2017-04-08T07:10:25.783Z,36.49
2017-04-08T07:11:26.364Z,36.49
2017-04-08T07:12:26.945Z,36.11
2017-04-08T07:13:27.526Z,36.01
2017-04-08T07:14:28.107Z,36.11
2017-04-08T07:15:28.890Z,36.20
2017-04-08T07:16:29.470Z,36.01
2017-04-08T07:17:30.051Z,36.30
2017-04-08T07:18:30.633Z,36.13
2017-04-08T07:19:31.213Z,36.22
2017-04-08T07:20:31.795Z,36.03
2017-04-08T07:21:32.376Z,35.74
2017-04-08T07:22:32.958Z,35.83
2017-04-08T07:23:33.539Z,35.93
2017-04-08T07:24:34.121Z,35.93
2017-04-08T07:25:34.701Z,36.05
2017-04-08T07:26:35.284Z,36.24
2017-04-08T07:27:35.865Z,36.33
2017-04-08T07:28:36.445Z,35.47
2017-04-08T07:29:37.027Z,35.38
2017-04-08T07:30:37.809Z,35.38
2017-04-08T07:31:38.394Z,35.57
2017-04-08T07:32:38.973Z,35.57
2017-04-08T07:33:39.553Z,35.38
2017-04-08T07:34:40.132Z,35.28
2017-04-08T07:35:40.715Z,35.76
2017-04-08T07:36:41.296Z,35.76
2017-04-08T07:37:41.878Z,35.66
2017-04-08T07:38:42.458Z,35.47
2017-04-08T07:39:43.040Z,35.47
2017-04-08T07:40:43.623Z,35.39
2017-04-08T07:41:44.204Z,35.38
2017-04-08T07:42:44.785Z,35.49
2017-04-08T07:43:45.365Z,35.39
2017-04-08T07:44:45.965Z,35.30
2017-04-08T07:45:46.748Z,35.10
2017-04-08T07:46:47.328Z,35.20
2017-04-08T07:47:47.910Z,35.10
2017-04-08T07:48:48.491Z,35.10
2017-04-08T07:49:49.090Z,35.00
2017-04-08T07:50:49.671Z,35.00
2017-04-08T07:51:50.253Z,35.02
2017-04-08T07:52:50.850Z,35.12
2017-04-08T07:53:51.435Z,34.81
2017-04-08T07:54:52.016Z,34.92
2017-04-08T07:55:52.598Z,34.83
2017-04-08T07:56:53.186Z,35.12
2017-04-08T07:57:53.763Z,35.02
2017-04-08T07:58:54.343Z,34.92
2017-04-08T07:59:54.925Z,34.83
2017-04-08T08:00:55.507Z,34.54
2017-04-08T08:01:56.091Z,34.74
2017-04-08T08:02:56.671Z,34.54
2017-04-08T08:03:57.269Z,34.54
2017-04-08T08:04:57.851Z,34.54
2017-04-08T08:05:58.433Z,34.66
2017-04-08T08:06:59.015Z,34.37
2017-04-08T08:07:59.600Z,34.37
2017-04-08T08:09:00.197Z,34.37
2017-04-08T08:10:00.780Z,34.27
2017-04-08T08:11:01.365Z,34.27
2017-04-08T08:12:01.943Z,34.19
2017-04-08T08:13:02.525Z,34.19
2017-04-08T08:14:03.109Z,34.19
2017-04-08T08:15:03.691Z,34.00
2017-04-08T08:16:04.473Z,33.71
2017-04-08T08:17:05.056Z,33.91
2017-04-08T08:18:05.638Z,33.92
2017-04-08T08:19:06.222Z,33.73
2017-04-08T08:20:06.803Z,33.92
2017-04-08T08:21:07.388Z,33.82
2017-04-08T08:22:07.970Z,33.63
2017-04-08T08:23:08.552Z,33.44
2017-04-08T08:24:09.133Z,33.34
2017-04-08T08:25:09.718Z,33.44
2017-04-08T08:26:10.299Z,33.44
2017-04-08T08:27:10.881Z,33.25
2017-04-08T08:28:11.462Z,33.34
2017-04-08T08:29:12.046Z,33.25
2017-04-08T08:30:12.629Z,33.25
2017-04-08T08:31:13.412Z,33.25
2017-04-08T08:32:13.995Z,33.07
2017-04-08T08:33:14.577Z,33.07
2017-04-08T08:34:15.160Z,33.07
2017-04-08T08:35:15.742Z,32.97
2017-04-08T08:36:16.327Z,32.78
2017-04-08T08:37:16.912Z,32.78
2017-04-08T08:38:17.512Z,32.78
2017-04-08T08:39:18.098Z,32.87
2017-04-08T08:40:18.679Z,32.97
2017-04-08T08:41:19.263Z,32.97
2017-04-08T08:42:19.846Z,32.68
2017-04-08T08:43:20.430Z,32.89
2017-04-08T08:44:21.012Z,32.87
2017-04-08T08:45:21.595Z,32.97
2017-04-08T08:46:22.378Z,32.51
2017-04-08T08:47:22.958Z,32.41
2017-04-08T08:48:23.540Z,32.31
2017-04-08T08:49:24.126Z,32.14
2017-04-08T08:50:24.709Z,32.23
2017-04-08T08:51:25.292Z,32.04
2017-04-08T08:52:25.876Z,31.85
2017-04-08T08:53:26.458Z,32.14
2017-04-08T08:54:27.041Z,31.75
2017-04-08T08:55:27.657Z,31.75
2017-04-08T08:56:28.207Z,32.04
2017-04-08T08:57:28.788Z,32.14
2017-04-08T08:58:29.373Z,31.75
2017-04-08T08:59:29.956Z,31.75
2017-04-08T09:00:30.538Z,31.94
2017-04-08T09:01:31.120Z,31.85
2017-04-08T09:02:31.705Z,31.75
2017-04-08T09:03:32.288Z,31.96
2017-04-08T09:04:32.872Z,31.96
2017-04-08T09:05:33.453Z,31.96
2017-04-08T09:06:34.039Z,31.76
2017-04-08T09:07:34.621Z,31.76
2017-04-08T09:08:35.203Z,31.76
2017-04-08T09:09:35.787Z,31.76
2017-04-08T09:10:36.372Z,31.57
2017-04-08T09:11:36.954Z,31.48
2017-04-08T09:12:37.537Z,31.18
2017-04-08T09:13:38.121Z,31.30
2017-04-08T09:14:38.706Z,31.30
2017-04-08T09:15:39.288Z,31.30
2017-04-08T09:16:39.871Z,31.49
2017-04-08T09:17:40.454Z,31.59
2017-04-08T09:18:41.039Z,31.59
2017-04-08T09:19:41.641Z,31.49
2017-04-08T09:20:42.226Z,31.01
2017-04-08T09:21:43.012Z,31.12
2017-04-08T09:22:43.596Z,30.93
2017-04-08T09:23:44.182Z,30.83
2017-04-08T09:24:44.769Z,30.93
2017-04-08T09:25:45.353Z,31.02
2017-04-08T09:26:45.938Z,30.93
2017-04-08T09:27:46.523Z,30.54
2017-04-08T09:28:47.109Z,30.63
2017-04-08T09:29:47.710Z,30.54
2017-04-08T09:30:48.297Z,30.54
2017-04-08T09:31:49.083Z,30.54
2017-04-08T09:32:49.667Z,30.85
2017-04-08T09:33:50.253Z,30.65
2017-04-08T09:34:50.840Z,30.75
2017-04-08T09:35:51.423Z,30.36
2017-04-08T09:36:52.008Z,30.46
2017-04-08T09:37:52.592Z,30.27
2017-04-08T09:38:53.177Z,30.47
2017-04-08T09:39:53.761Z,30.18
2017-04-08T09:40:54.345Z,29.99
2017-04-08T09:41:54.929Z,30.08
2017-04-08T09:42:55.514Z,29.99
2017-04-08T09:43:56.101Z,29.80
2017-04-08T09:44:56.685Z,29.70
2017-04-08T09:45:57.272Z,29.90
2017-04-08T09:46:58.056Z,29.80
2017-04-08T09:47:58.641Z,29.70
2017-04-08T09:48:59.227Z,29.70
2017-04-08T09:49:59.812Z,29.70
2017-04-08T09:51:00.400Z,29.41
2017-04-08T09:52:00.986Z,29.60
2017-04-08T09:53:01.570Z,29.80
2017-04-08T09:54:02.157Z,29.90
2017-04-08T09:55:02.743Z,29.90
2017-04-08T09:56:03.333Z,29.70
2017-04-08T09:57:03.916Z,29.80
2017-04-08T09:58:04.500Z,29.70
2017-04-08T09:59:05.085Z,29.80
2017-04-08T10:00:05.670Z,29.80
2017-04-08T10:01:06.257Z,30.08
2017-04-08T10:02:07.042Z,29.80
2017-04-08T10:03:07.625Z,29.90
2017-04-08T10:04:08.211Z,29.90
2017-04-08T10:05:08.796Z,29.80
2017-04-08T10:06:09.381Z,29.80
2017-04-08T10:07:09.966Z,29.90
2017-04-08T10:08:10.561Z,29.90
2017-04-08T10:09:11.139Z,29.90
2017-04-08T10:10:11.724Z,29.99
2017-04-08T10:11:12.309Z,29.80
2017-04-08T10:12:12.893Z,29.60
2017-04-08T10:13:13.479Z,29.60
2017-04-08T10:14:14.064Z,29.60
2017-04-08T10:15:14.648Z,29.61
2017-04-08T10:16:15.234Z,29.52
2017-04-08T10:17:16.037Z,29.33
2017-04-08T10:18:16.623Z,29.13
2017-04-08T10:19:17.209Z,29.33
2017-04-08T10:20:17.794Z,29.33
2017-04-08T10:21:18.379Z,29.15
2017-04-08T10:22:18.966Z,29.13
2017-04-08T10:23:19.552Z,29.24
2017-04-08T10:24:20.137Z,29.15
2017-04-08T10:25:20.722Z,29.24
2017-04-08T10:26:21.308Z,29.24
2017-04-08T10:27:21.897Z,29.05
2017-04-08T10:28:22.481Z,29.05
2017-04-08T10:29:23.067Z,28.96
2017-04-08T10:30:23.672Z,29.05
2017-04-08T10:31:24.256Z,29.15
2017-04-08T10:32:25.042Z,29.05
2017-04-08T10:33:25.629Z,28.87
2017-04-08T10:34:26.213Z,28.97
2017-04-08T10:35:26.799Z,28.68
2017-04-08T10:36:27.384Z,28.77
2017-04-08T10:37:27.971Z,28.49
2017-04-08T10:38:28.555Z,28.49
2017-04-08T10:39:29.140Z,28.29
2017-04-08T10:40:29.727Z,28.19
2017-04-08T10:41:30.331Z,28.39
2017-04-08T10:42:30.917Z,28.09
2017-04-08T10:43:31.508Z,28.19
2017-04-08T10:44:32.091Z,28.11
2017-04-08T10:45:32.676Z,28.40
2017-04-08T10:46:33.263Z,27.92
2017-04-08T10:47:33.849Z,27.62
2017-04-08T10:48:34.436Z,27.72
2017-04-08T10:49:35.023Z,27.62
2017-04-08T10:50:35.610Z,27.62
2017-04-08T10:51:36.196Z,27.92
2017-04-08T10:52:36.798Z,27.72
2017-04-08T10:53:37.388Z,27.62
2017-04-08T10:54:37.970Z,27.81
2017-04-08T10:55:38.557Z,27.91
2017-04-08T10:56:39.143Z,28.19
2017-04-08T10:57:39.928Z,28.19
2017-04-08T10:58:40.530Z,28.29
2017-04-08T10:59:41.121Z,28.19
2017-04-08T11:00:41.704Z,28.49
2017-04-08T11:01:42.288Z,28.29
2017-04-08T11:02:42.874Z,28.29
2017-04-08T11:03:43.476Z,28.19
2017-04-08T11:04:44.063Z,28.39
2017-04-08T11:05:44.648Z,28.29
2017-04-08T11:06:45.236Z,28.39
2017-04-08T11:07:45.821Z,28.29
2017-04-08T11:08:46.406Z,28.18
2017-04-08T11:09:46.993Z,28.19
2017-04-08T11:10:47.585Z,28.19
2017-04-08T11:11:48.172Z,28.18
2017-04-08T11:12:48.952Z,28.28
2017-04-08T11:13:49.540Z,28.19
2017-04-08T11:14:50.123Z,28.47
2017-04-08T11:15:50.708Z,28.58
2017-04-08T11:16:51.310Z,28.56
2017-04-08T11:17:51.894Z,28.76
2017-04-08T11:18:52.479Z,28.76
2017-04-08T11:19:53.066Z,28.47
2017-04-08T11:20:53.652Z,28.75
2017-04-08T11:21:54.236Z,28.85
2017-04-08T11:22:55.021Z,28.75
2017-04-08T11:23:55.607Z,28.55
2017-04-08T11:24:56.191Z,28.85
2017-04-08T11:25:56.778Z,28.85
2017-04-08T11:26:57.363Z,28.75
2017-04-08T11:27:57.950Z,28.85
2017-04-08T11:28:58.534Z,28.65
2017-04-08T11:29:59.120Z,28.73
2017-04-08T11:30:59.704Z,28.73
2017-04-08T11:32:00.291Z,28.92
2017-04-08T11:33:00.877Z,28.64
2017-04-08T11:34:01.462Z,29.02
2017-04-08T11:35:02.049Z,28.92
2017-04-08T11:36:02.635Z,28.92
2017-04-08T11:37:03.222Z,28.83
2017-04-08T11:38:03.807Z,28.92
2017-04-08T11:39:04.391Z,29.02
2017-04-08T11:40:04.977Z,29.12
2017-04-08T11:41:05.564Z,29.22
2017-04-08T11:42:06.154Z,29.12
2017-04-08T11:43:06.734Z,29.12
2017-04-08T11:44:07.335Z,29.12
2017-04-08T11:45:07.919Z,29.22
2017-04-08T11:46:08.503Z,29.12
2017-04-08T11:47:09.090Z,29.02
2017-04-08T11:48:09.676Z,29.02
2017-04-08T11:49:10.277Z,28.73
2017-04-08T11:50:10.878Z,28.83
2017-04-08T11:51:11.464Z,28.92
2017-04-08T11:52:12.050Z,28.92
2017-04-08T11:53:12.636Z,28.83
2017-04-08T11:54:13.221Z,28.55
2017-04-08T11:55:13.809Z,28.28
2017-04-08T11:56:14.395Z,27.79
2017-04-08T11:57:14.981Z,27.71
2017-04-08T11:58:15.784Z,27.71
2017-04-08T11:59:16.371Z,27.61
2017-04-08T12:00:16.958Z,27.61
2017-04-08T12:01:17.550Z,26.93
2017-04-08T12:02:18.133Z,27.03
2017-04-08T12:03:18.717Z,27.22
2017-04-08T12:04:19.304Z,27.13
2017-04-08T12:05:19.906Z,26.93
2017-04-08T12:06:20.493Z,26.45
2017-04-08T12:07:21.081Z,26.54
2017-04-08T12:08:21.670Z,26.54
2017-04-08T12:09:22.274Z,26.54
2017-04-08T12:10:22.861Z,26.45
2017-04-08T12:11:23.448Z,26.54
2017-04-08T12:12:24.032Z,26.64
2017-04-08T12:13:24.818Z,26.35
2017-04-08T12:14:25.403Z,26.64
2017-04-08T12:15:25.989Z,26.64
2017-04-08T12:16:26.575Z,26.74
2017-04-08T12:17:27.162Z,26.63
2017-04-08T12:18:27.746Z,26.63
2017-04-08T12:19:28.332Z,26.43
2017-04-08T12:20:28.918Z,26.34
2017-04-08T12:21:29.505Z,26.34
2017-04-08T12:22:30.094Z,26.73
2017-04-08T12:23:30.680Z,26.63
2017-04-08T12:24:31.267Z,26.53
2017-04-08T12:25:31.852Z,26.53
2017-04-08T12:26:32.437Z,26.54
2017-04-08T12:27:33.026Z,26.63
2017-04-08T12:28:33.810Z,26.63
2017-04-08T12:29:34.398Z,26.64
2017-04-08T12:30:34.985Z,26.64
2017-04-08T12:31:35.569Z,26.54
2017-04-08T12:32:36.155Z,26.45
2017-04-08T12:33:36.740Z,26.54
2017-04-08T12:34:37.342Z,26.74
2017-04-08T12:35:37.929Z,26.64
2017-04-08T12:36:38.517Z,26.64
2017-04-08T12:37:39.104Z,26.35
2017-04-08T12:38:39.690Z,26.74
2017-04-08T12:39:40.277Z,26.74
2017-04-08T12:40:40.869Z,26.84
2017-04-08T12:41:41.451Z,26.93
2017-04-08T12:42:42.037Z,27.03
2017-04-08T12:43:42.823Z,26.64
2017-04-08T12:44:43.411Z,26.74
2017-04-08T12:45:44.001Z,26.84
2017-04-08T12:46:44.584Z,26.84
2017-04-08T12:47:45.170Z,26.54
2017-04-08T12:48:45.757Z,26.74
2017-04-08T12:49:46.345Z,26.35
2017-04-08T12:50:46.931Z,26.54
2017-04-08T12:51:47.516Z,26.35
2017-04-08T12:52:48.101Z,26.45
2017-04-08T12:53:48.689Z,26.45
2017-04-08T12:54:49.292Z,26.26
2017-04-08T12:55:49.893Z,26.16
2017-04-08T12:56:50.480Z,26.26
2017-04-08T12:57:51.068Z,26.26
2017-04-08T12:58:51.853Z,25.98
2017-04-08T12:59:52.439Z,25.88